Auburn Hills, Michigan
Current Conditions -  °F | °C
As of 11:35 AM on Monday 24 Nov 2014 (Local Time) from KVLL Reporting Station
Moderate Rain Moderate Rain  
Wind Chill: 56°   Ceiling: 1900
Heat Index: 56°   Visibility: 10mi
Dew Point: 52°   Wind: 12mph
Humidity: 86%   Direction: 190°S
Pressure: 29.12"   Gusts: 16mph
Location:  42.67°N, 83.22°W
Report Text: KVLL 241635Z AUTO 19010G14KT 10SM RA SCT012 BKN019 OVC060 14/11 A2912 RMK AO2 T01350112
Loading
Personal Weather Stations






























Interactive Weather Map New forecast layout! Learn more

10-Day Weather Forecast

Advertisements
Track Severe Weather on mobile